createdAt,value
2023-02-02T00:01:57.968Z,64.80
2023-02-02T00:04:36.643Z,64.80
2023-02-02T00:07:08.910Z,64.90
2023-02-02T00:09:35.752Z,64.80
2023-02-02T00:12:02.797Z,64.90
2023-02-02T00:14:37.006Z,64.90
2023-02-02T00:17:10.514Z,64.90
2023-02-02T00:19:37.503Z,64.90
2023-02-02T00:22:09.644Z,64.90
2023-02-02T00:24:38.702Z,64.90
2023-02-02T00:27:05.703Z,64.90
2023-02-02T00:29:32.751Z,64.90
2023-02-02T00:32:02.039Z,64.90
2023-02-02T00:34:31.337Z,64.90
2023-02-02T00:36:58.164Z,64.90
2023-02-02T00:39:29.657Z,64.90
2023-02-02T00:41:59.589Z,65.00
2023-02-02T00:44:44.656Z,65.00
2023-02-02T00:47:11.839Z,65.00
2023-02-02T00:49:38.909Z,65.00
2023-02-02T00:52:09.203Z,65.00
2023-02-02T00:54:38.432Z,65.10
2023-02-02T00:57:07.450Z,65.10
2023-02-02T00:59:37.261Z,65.10
2023-02-02T01:02:04.154Z,65.10
2023-02-02T01:04:33.506Z,65.10
2023-02-02T01:07:02.902Z,65.20
2023-02-02T01:09:32.617Z,65.20
2023-02-02T01:12:01.667Z,65.20
2023-02-02T01:14:28.654Z,65.20
2023-02-02T01:16:55.920Z,65.20
2023-02-02T01:19:22.972Z,65.20
2023-02-02T01:21:52.900Z,65.20
2023-02-02T01:24:22.810Z,65.20
2023-02-02T01:26:52.262Z,65.20
2023-02-02T01:29:19.225Z,65.20
2023-02-02T01:31:47.862Z,65.20
2023-02-02T01:34:19.271Z,65.30
2023-02-02T01:36:48.548Z,65.30
2023-02-02T01:39:17.999Z,65.20
2023-02-02T01:41:48.395Z,65.40
2023-02-02T01:44:52.517Z,65.40
2023-02-02T01:47:29.418Z,65.60
2023-02-02T01:49:56.855Z,65.50
2023-02-02T01:52:32.913Z,65.50
2023-02-02T01:55:09.815Z,65.50
2023-02-02T01:57:54.622Z,65.60
2023-02-02T02:00:27.236Z,65.60
2023-02-02T02:03:06.140Z,65.50
2023-02-02T02:05:42.749Z,65.70
2023-02-02T02:08:26.151Z,65.70
2023-02-02T02:10:56.416Z,65.70
2023-02-02T02:13:47.759Z,65.60
2023-02-02T02:16:52.900Z,65.70
2023-02-02T02:20:19.366Z,65.80
2023-02-02T02:23:43.739Z,65.80
2023-02-02T02:26:50.529Z,65.70
2023-02-02T02:29:42.460Z,65.90
2023-02-02T02:32:31.657Z,65.90
2023-02-02T02:35:13.804Z,65.90
2023-02-02T02:38:19.025Z,65.80
2023-02-02T02:41:13.751Z,65.80
2023-02-02T02:43:52.862Z,65.70
2023-02-02T02:46:23.202Z,65.80
2023-02-02T02:48:50.431Z,65.80
2023-02-02T02:51:48.778Z,65.80
2023-02-02T02:54:33.530Z,66.10
2023-02-02T02:57:34.820Z,66.00
2023-02-02T03:00:31.748Z,66.00
2023-02-02T03:03:28.797Z,66.10
2023-02-02T03:06:48.345Z,66.00
2023-02-02T03:09:34.755Z,66.10
2023-02-02T03:12:02.285Z,66.30
2023-02-02T03:14:29.156Z,66.10
2023-02-02T03:16:58.410Z,66.10
2023-02-02T03:19:27.495Z,66.10
2023-02-02T03:21:56.739Z,66.20
2023-02-02T03:24:26.297Z,66.20
2023-02-02T03:26:53.611Z,66.20
2023-02-02T03:29:20.835Z,66.30
2023-02-02T03:31:50.802Z,66.30
2023-02-02T03:34:17.676Z,66.30
2023-02-02T03:36:49.364Z,66.30
2023-02-02T03:39:20.763Z,66.40
2023-02-02T03:41:49.791Z,66.40
2023-02-02T03:44:21.856Z,66.40
2023-02-02T03:46:50.856Z,66.50
2023-02-02T03:49:17.703Z,66.50
2023-02-02T03:51:44.629Z,66.50
2023-02-02T03:54:12.073Z,66.50
2023-02-02T03:56:41.243Z,66.50
2023-02-02T03:59:08.059Z,66.50
2023-02-02T04:01:37.037Z,66.60
2023-02-02T04:04:03.907Z,66.70
2023-02-02T04:06:31.158Z,66.70
2023-02-02T04:08:59.958Z,66.80
2023-02-02T04:11:26.950Z,66.80
2023-02-02T04:13:53.727Z,66.80
2023-02-02T04:16:20.667Z,66.80
2023-02-02T04:18:47.749Z,66.80
2023-02-02T04:21:17.049Z,66.80
2023-02-02T04:23:46.052Z,66.80
2023-02-02T04:26:12.934Z,66.80
2023-02-02T04:28:40.002Z,66.80
2023-02-02T04:31:06.906Z,66.90
2023-02-02T04:33:37.031Z,66.90
2023-02-02T04:36:06.954Z,66.80
2023-02-02T04:38:33.913Z,66.80
2023-02-02T04:41:14.587Z,66.80
2023-02-02T04:43:41.941Z,66.80
2023-02-02T04:46:10.987Z,66.80
2023-02-02T04:48:38.732Z,66.90
2023-02-02T04:51:12.099Z,66.90
2023-02-02T04:53:42.192Z,67.00
2023-02-02T04:56:19.261Z,66.90
2023-02-02T04:58:48.841Z,67.00
2023-02-02T05:01:20.656Z,66.90
2023-02-02T05:03:51.339Z,66.90
2023-02-02T05:06:21.602Z,66.90
2023-02-02T05:08:53.389Z,66.90
2023-02-02T05:11:23.492Z,66.90
2023-02-02T05:13:57.296Z,67.00
2023-02-02T05:16:28.901Z,66.90
2023-02-02T05:18:57.789Z,66.90
2023-02-02T05:21:27.084Z,66.90
2023-02-02T05:23:54.465Z,66.90
2023-02-02T05:26:27.321Z,66.80
2023-02-02T05:28:56.932Z,66.90
2023-02-02T05:31:26.428Z,66.80
2023-02-02T05:33:55.633Z,66.80
2023-02-02T05:36:25.120Z,66.80
2023-02-02T05:38:52.086Z,66.80
2023-02-02T05:41:18.990Z,66.80
2023-02-02T05:43:50.437Z,66.80
2023-02-02T05:46:17.423Z,66.80
2023-02-02T05:48:44.304Z,66.80
2023-02-02T05:51:24.073Z,66.80
2023-02-02T05:53:50.967Z,66.90
2023-02-02T05:56:20.025Z,66.80
2023-02-02T05:58:49.872Z,66.80
2023-02-02T06:01:18.837Z,66.90
2023-02-02T06:03:48.446Z,66.80
2023-02-02T06:06:17.694Z,66.80
2023-02-02T06:08:46.981Z,66.90
2023-02-02T06:11:17.358Z,66.90
2023-02-02T06:13:46.384Z,66.90
2023-02-02T06:16:13.392Z,66.90
2023-02-02T06:18:40.421Z,66.90
2023-02-02T06:21:10.083Z,66.90
2023-02-02T06:23:36.955Z,66.90
2023-02-02T06:26:08.209Z,67.00
2023-02-02T06:28:35.092Z,66.90
2023-02-02T06:31:12.274Z,67.00
2023-02-02T06:33:39.290Z,67.10
2023-02-02T06:36:09.091Z,67.00
2023-02-02T06:38:42.813Z,67.00
2023-02-02T06:41:11.962Z,67.10
2023-02-02T06:43:38.794Z,67.10
2023-02-02T06:46:07.996Z,67.10
2023-02-02T06:48:34.812Z,67.10
2023-02-02T06:51:05.474Z,67.10
2023-02-02T06:53:35.382Z,67.10
2023-02-02T06:56:06.189Z,67.10
2023-02-02T06:58:37.775Z,67.10
2023-02-02T07:01:13.988Z,67.20
2023-02-02T07:03:43.483Z,67.20
2023-02-02T07:06:15.291Z,67.20
2023-02-02T07:08:44.929Z,67.20
2023-02-02T07:11:15.370Z,67.80
2023-02-02T07:13:47.335Z,67.20
2023-02-02T07:16:18.202Z,67.20
2023-02-02T07:18:49.357Z,67.90
2023-02-02T07:21:22.870Z,67.20
2023-02-02T07:23:50.335Z,67.30
2023-02-02T07:26:19.272Z,67.20
2023-02-02T07:28:49.371Z,67.10
2023-02-02T07:31:22.982Z,67.20
2023-02-02T07:33:54.845Z,67.10
2023-02-02T07:36:24.454Z,67.10
2023-02-02T07:39:03.842Z,67.10
2023-02-02T07:41:36.399Z,67.10
2023-02-02T07:44:04.946Z,67.00
2023-02-02T07:46:31.999Z,67.00
2023-02-02T07:49:02.067Z,67.00
2023-02-02T07:51:28.931Z,67.00
2023-02-02T07:54:00.414Z,67.00
2023-02-02T07:56:30.324Z,67.00
2023-02-02T07:58:57.772Z,67.00
2023-02-02T08:01:28.841Z,67.00
2023-02-02T08:04:01.343Z,67.10
2023-02-02T08:06:39.933Z,67.00
2023-02-02T08:09:10.352Z,67.00
2023-02-02T08:11:42.926Z,67.00
2023-02-02T08:14:14.190Z,67.00
2023-02-02T08:16:47.989Z,67.00
2023-02-02T08:19:19.169Z,67.00
2023-02-02T08:21:48.353Z,67.00
2023-02-02T08:24:19.682Z,66.90
2023-02-02T08:26:51.542Z,67.00
2023-02-02T08:29:18.401Z,67.00
2023-02-02T08:31:47.826Z,67.00
2023-02-02T08:34:19.088Z,67.00
2023-02-02T08:36:48.065Z,67.00
2023-02-02T08:39:14.958Z,66.90
2023-02-02T08:41:46.636Z,66.90
2023-02-02T08:44:16.287Z,66.90
2023-02-02T08:46:43.260Z,66.90
2023-02-02T08:49:14.587Z,66.90
2023-02-02T08:51:42.160Z,66.90
2023-02-02T08:54:14.225Z,66.90
2023-02-02T08:56:46.313Z,66.90
2023-02-02T08:59:17.814Z,66.90
2023-02-02T09:01:51.900Z,66.90
2023-02-02T09:04:21.228Z,66.80
2023-02-02T09:06:50.535Z,66.80
2023-02-02T09:09:22.319Z,66.80
2023-02-02T09:11:55.849Z,66.80
2023-02-02T09:14:22.701Z,66.80
2023-02-02T09:16:54.130Z,66.80
2023-02-02T09:19:21.194Z,66.80
2023-02-02T09:21:50.858Z,66.80
2023-02-02T09:24:17.850Z,66.70
2023-02-02T09:26:47.101Z,67.20
2023-02-02T09:29:20.333Z,66.70
2023-02-02T09:31:47.558Z,66.60
2023-02-02T09:34:19.410Z,66.70
2023-02-02T09:36:47.355Z,66.60
2023-02-02T09:39:20.450Z,66.70
2023-02-02T09:42:06.169Z,66.70
2023-02-02T09:45:01.522Z,66.60
2023-02-02T09:47:57.372Z,67.10
2023-02-02T09:50:54.454Z,66.50
2023-02-02T09:53:55.555Z,66.50
2023-02-02T09:56:41.073Z,66.50
2023-02-02T09:59:22.858Z,66.50
2023-02-02T10:02:00.441Z,66.60
2023-02-02T10:04:33.925Z,66.70
2023-02-02T10:07:18.799Z,66.70
2023-02-02T10:09:50.822Z,66.70
2023-02-02T10:12:53.629Z,66.60
2023-02-02T10:15:45.216Z,66.70
2023-02-02T10:18:44.790Z,66.60
2023-02-02T10:21:54.711Z,66.60
2023-02-02T10:24:32.000Z,66.60
2023-02-02T10:27:06.025Z,66.60
2023-02-02T10:29:55.717Z,66.60
2023-02-02T10:32:44.447Z,66.60
2023-02-02T10:35:42.821Z,66.60
2023-02-02T10:38:31.710Z,66.60
2023-02-02T10:41:25.573Z,66.60
2023-02-02T10:44:26.820Z,66.60
2023-02-02T10:47:06.079Z,66.60
2023-02-02T10:49:42.952Z,66.60
2023-02-02T10:52:31.089Z,66.60
2023-02-02T10:55:52.447Z,66.70
2023-02-02T10:58:42.468Z,66.70
2023-02-02T11:01:18.418Z,66.70
2023-02-02T11:03:47.938Z,66.70
2023-02-02T11:06:35.961Z,66.80
2023-02-02T11:09:05.525Z,66.80
2023-02-02T11:11:45.287Z,66.80
2023-02-02T11:14:44.483Z,66.60
2023-02-02T11:17:30.043Z,66.60
2023-02-02T11:19:59.562Z,66.50
2023-02-02T11:22:38.698Z,66.50
2023-02-02T11:25:32.681Z,66.50
2023-02-02T11:28:18.695Z,66.50
2023-02-02T11:30:53.411Z,66.50
2023-02-02T11:33:33.446Z,66.50
2023-02-02T11:36:20.717Z,66.50
2023-02-02T11:39:21.081Z,66.40
2023-02-02T11:41:50.410Z,66.30
2023-02-02T11:44:29.166Z,66.30
2023-02-02T11:47:04.670Z,66.30
2023-02-02T11:49:42.024Z,66.40
2023-02-02T11:52:24.382Z,66.30
2023-02-02T11:55:00.589Z,66.40
2023-02-02T11:57:30.603Z,66.50
2023-02-02T12:00:09.190Z,66.50
2023-02-02T12:02:36.247Z,66.60
2023-02-02T12:05:20.414Z,66.50
2023-02-02T12:07:48.733Z,66.70
2023-02-02T12:10:40.012Z,66.60
2023-02-02T12:13:39.432Z,66.70
2023-02-02T12:16:22.719Z,66.60
2023-02-02T12:19:12.658Z,66.70
2023-02-02T12:22:02.872Z,66.70
2023-02-02T12:25:00.848Z,66.70
2023-02-02T12:27:29.935Z,66.60
2023-02-02T12:30:21.324Z,66.80
2023-02-02T12:33:32.710Z,66.60
2023-02-02T12:36:27.459Z,66.60
2023-02-02T12:39:46.969Z,66.50
2023-02-02T12:42:37.034Z,66.50
2023-02-02T12:45:25.738Z,66.50
2023-02-02T12:48:24.951Z,66.50
2023-02-02T12:51:11.136Z,66.50
2023-02-02T12:54:32.797Z,66.50
2023-02-02T12:57:10.987Z,66.50
2023-02-02T13:00:10.700Z,66.50
2023-02-02T13:03:11.261Z,66.60
2023-02-02T13:06:12.729Z,66.60
2023-02-02T13:09:05.885Z,66.70
2023-02-02T13:11:44.811Z,66.70
2023-02-02T13:14:41.676Z,66.70
2023-02-02T13:17:25.162Z,66.70
2023-02-02T13:20:04.384Z,66.70
2023-02-02T13:22:44.275Z,66.70
2023-02-02T13:25:31.672Z,66.60
2023-02-02T13:28:04.490Z,66.70
2023-02-02T13:30:47.201Z,66.60
2023-02-02T13:33:23.249Z,66.70
2023-02-02T13:35:54.646Z,66.60
2023-02-02T13:38:34.114Z,66.70
2023-02-02T13:41:08.218Z,66.70
2023-02-02T13:43:46.583Z,66.70
2023-02-02T13:46:39.313Z,66.70
2023-02-02T13:49:36.948Z,66.60
2023-02-02T13:52:20.925Z,66.60
2023-02-02T13:55:20.083Z,66.60
2023-02-02T13:57:48.449Z,66.60
2023-02-02T14:00:30.743Z,66.60
2023-02-02T14:03:28.801Z,66.60
2023-02-02T14:06:05.999Z,66.50
2023-02-02T14:08:35.999Z,66.40
2023-02-02T14:11:16.597Z,66.40
2023-02-02T14:14:08.551Z,66.40
2023-02-02T14:16:35.382Z,66.50
2023-02-02T14:19:14.634Z,66.50
2023-02-02T14:21:41.380Z,66.40
2023-02-02T14:24:38.143Z,66.40
2023-02-02T14:27:07.847Z,66.40
2023-02-02T14:29:36.579Z,66.40
2023-02-02T14:32:24.372Z,66.30
2023-02-02T14:35:16.316Z,66.30
2023-02-02T14:38:05.917Z,66.30
2023-02-02T14:41:00.352Z,66.40
2023-02-02T14:43:54.579Z,66.20
2023-02-02T14:46:34.950Z,66.30
2023-02-02T14:49:01.856Z,66.30
2023-02-02T14:51:36.668Z,66.30
2023-02-02T14:54:19.250Z,66.30
2023-02-02T14:57:02.929Z,66.30
2023-02-02T14:59:47.187Z,66.30
2023-02-02T15:02:28.856Z,66.30
2023-02-02T15:05:38.969Z,66.20
2023-02-02T15:08:24.724Z,66.30
2023-02-02T15:10:59.987Z,66.30
2023-02-02T15:13:39.144Z,66.30
2023-02-02T15:16:27.563Z,66.40
2023-02-02T15:19:07.027Z,66.40
2023-02-02T15:21:40.901Z,66.40
2023-02-02T15:24:23.116Z,66.40
2023-02-02T15:26:54.605Z,66.40
2023-02-02T15:29:43.894Z,66.40
2023-02-02T15:32:22.319Z,66.40
2023-02-02T15:34:57.587Z,66.30
2023-02-02T15:37:40.186Z,66.30
2023-02-02T15:40:23.532Z,66.30
2023-02-02T15:43:13.799Z,66.30
2023-02-02T15:45:54.852Z,66.30
2023-02-02T15:48:30.156Z,66.40
2023-02-02T15:51:07.040Z,66.30
2023-02-02T15:53:48.179Z,66.30
2023-02-02T15:56:34.016Z,66.40
2023-02-02T15:59:01.710Z,66.30
2023-02-02T16:01:33.580Z,66.30
2023-02-02T16:04:38.500Z,66.30
2023-02-02T16:07:34.024Z,66.30
2023-02-02T16:10:08.510Z,66.20
2023-02-02T16:12:45.349Z,66.10
2023-02-02T16:15:27.090Z,66.10
2023-02-02T16:18:04.449Z,66.00
2023-02-02T16:20:38.167Z,66.00
2023-02-02T16:23:18.642Z,65.90
2023-02-02T16:25:54.813Z,65.80
2023-02-02T16:28:27.011Z,65.80
2023-02-02T16:31:01.450Z,65.80
2023-02-02T16:33:38.303Z,65.80
2023-02-02T16:36:29.746Z,65.80
2023-02-02T16:39:00.888Z,65.70
2023-02-02T16:41:32.194Z,65.70
2023-02-02T16:44:40.003Z,65.70
2023-02-02T16:47:29.242Z,65.50
2023-02-02T16:50:33.629Z,65.60
2023-02-02T16:53:05.901Z,65.60
2023-02-02T16:55:49.442Z,65.60
2023-02-02T16:58:25.735Z,65.60
2023-02-02T17:01:15.566Z,65.60
2023-02-02T17:03:55.508Z,65.60
2023-02-02T17:06:46.198Z,65.40
2023-02-02T17:09:40.948Z,65.50
2023-02-02T17:12:32.000Z,65.50
2023-02-02T17:15:19.800Z,65.50
2023-02-02T17:17:48.823Z,65.40
2023-02-02T17:20:19.778Z,65.50
2023-02-02T17:23:00.192Z,65.50
2023-02-02T17:25:36.995Z,65.40
2023-02-02T17:28:12.041Z,65.40
2023-02-02T17:30:49.943Z,65.40
2023-02-02T17:33:19.962Z,65.40
2023-02-02T17:35:55.828Z,65.40
2023-02-02T17:38:27.877Z,65.40
2023-02-02T17:41:01.995Z,65.30
2023-02-02T17:43:35.437Z,65.30
2023-02-02T17:46:08.360Z,65.20
2023-02-02T17:48:35.536Z,65.20
2023-02-02T17:51:06.270Z,65.10
2023-02-02T17:53:39.966Z,65.10
2023-02-02T17:56:07.264Z,65.10
2023-02-02T17:58:34.121Z,65.00
2023-02-02T18:01:01.525Z,65.10
2023-02-02T18:03:34.436Z,65.00
2023-02-02T18:06:06.613Z,64.90
2023-02-02T18:08:38.182Z,64.90
2023-02-02T18:11:14.655Z,64.90
2023-02-02T18:13:43.231Z,64.90
2023-02-02T18:16:16.137Z,64.80
2023-02-02T18:18:45.821Z,64.80
2023-02-02T18:21:14.038Z,64.80
2023-02-02T18:23:43.392Z,64.80
2023-02-02T18:26:22.013Z,64.70
2023-02-02T18:28:50.523Z,64.70
2023-02-02T18:31:23.676Z,64.70
2023-02-02T18:33:53.785Z,64.70
2023-02-02T18:36:24.074Z,64.80
2023-02-02T18:38:51.623Z,65.30
2023-02-02T18:41:21.490Z,64.60
2023-02-02T18:43:54.718Z,64.60
2023-02-02T18:46:21.644Z,65.10
2023-02-02T18:48:50.658Z,64.60
2023-02-02T18:51:21.878Z,64.60
2023-02-02T18:53:48.876Z,64.60
2023-02-02T18:56:17.923Z,64.70
2023-02-02T18:58:47.103Z,64.60
2023-02-02T19:01:19.721Z,64.60
2023-02-02T19:03:53.132Z,64.60
2023-02-02T19:06:42.163Z,65.10
2023-02-02T19:09:17.142Z,64.60
2023-02-02T19:11:50.648Z,64.50
2023-02-02T19:14:30.040Z,64.50
2023-02-02T19:17:14.063Z,64.40
2023-02-02T19:19:42.851Z,64.40
2023-02-02T19:22:32.312Z,64.40
2023-02-02T19:24:59.330Z,64.20
2023-02-02T19:27:29.450Z,64.50
2023-02-02T19:30:06.155Z,64.40
2023-02-02T19:32:33.529Z,64.40
2023-02-02T19:35:06.621Z,64.40
2023-02-02T19:37:43.480Z,64.50
2023-02-02T19:40:10.336Z,64.30
2023-02-02T19:42:56.746Z,64.50
2023-02-02T19:45:35.202Z,64.30
2023-02-02T19:48:17.759Z,64.20
2023-02-02T19:50:50.454Z,64.20
2023-02-02T19:53:23.847Z,64.30
2023-02-02T19:55:55.311Z,64.20
2023-02-02T19:58:35.322Z,64.30
2023-02-02T20:01:19.952Z,64.30
2023-02-02T20:03:52.425Z,64.30
2023-02-02T20:06:24.788Z,64.30
2023-02-02T20:08:55.173Z,64.30
2023-02-02T20:11:35.364Z,64.30
2023-02-02T20:14:29.474Z,64.30
2023-02-02T20:17:16.524Z,64.20
2023-02-02T20:19:49.084Z,64.20
2023-02-02T20:22:32.042Z,64.30
2023-02-02T20:25:06.896Z,64.30
2023-02-02T20:27:37.982Z,64.30
2023-02-02T20:30:26.525Z,64.30
2023-02-02T20:33:02.947Z,64.20
2023-02-02T20:35:42.674Z,64.20
2023-02-02T20:38:28.445Z,64.30
2023-02-02T20:40:56.648Z,64.30
2023-02-02T20:43:26.295Z,64.30
2023-02-02T20:45:58.078Z,64.20
2023-02-02T20:48:25.670Z,64.20
2023-02-02T20:50:52.510Z,64.20
2023-02-02T20:53:22.264Z,64.20
2023-02-02T20:55:57.986Z,64.30
2023-02-02T20:58:27.536Z,64.30
2023-02-02T21:00:54.918Z,64.30
2023-02-02T21:03:26.962Z,64.30
2023-02-02T21:05:55.892Z,64.30
2023-02-02T21:08:22.702Z,64.20
2023-02-02T21:10:51.916Z,64.30
2023-02-02T21:13:20.976Z,64.30
2023-02-02T21:15:48.418Z,64.20
2023-02-02T21:18:22.272Z,64.20
2023-02-02T21:20:49.237Z,64.20
2023-02-02T21:23:18.658Z,64.20
2023-02-02T21:25:48.439Z,64.10
2023-02-02T21:28:17.406Z,64.20
2023-02-02T21:30:49.019Z,64.20
2023-02-02T21:33:20.621Z,64.10
2023-02-02T21:35:49.628Z,64.20
2023-02-02T21:38:18.688Z,64.20
2023-02-02T21:40:47.081Z,64.10
2023-02-02T21:43:18.606Z,64.20
2023-02-02T21:45:53.232Z,64.20
2023-02-02T21:48:20.120Z,64.20
2023-02-02T21:50:47.766Z,64.20
2023-02-02T21:53:24.135Z,64.20
2023-02-02T21:56:03.021Z,64.20
2023-02-02T21:58:38.992Z,64.20
2023-02-02T22:01:35.907Z,64.20
2023-02-02T22:04:24.259Z,64.10
2023-02-02T22:06:56.362Z,64.20
2023-02-02T22:09:38.140Z,64.20
2023-02-02T22:12:28.389Z,64.30
2023-02-02T22:15:04.814Z,64.30
2023-02-02T22:17:40.464Z,64.30
2023-02-02T22:20:29.922Z,64.40
2023-02-02T22:22:56.766Z,64.40
2023-02-02T22:25:37.872Z,64.40
2023-02-02T22:28:24.449Z,64.50
2023-02-02T22:30:55.998Z,64.40
2023-02-02T22:33:28.001Z,64.50
2023-02-02T22:35:59.358Z,64.50
2023-02-02T22:38:29.107Z,64.50
2023-02-02T22:40:58.516Z,64.50
2023-02-02T22:43:27.702Z,64.50
2023-02-02T22:45:54.553Z,64.50
2023-02-02T22:48:23.728Z,64.60
2023-02-02T22:50:52.760Z,64.50
2023-02-02T22:53:22.018Z,64.50
2023-02-02T22:55:56.269Z,64.50
2023-02-02T22:58:25.863Z,64.50
2023-02-02T23:00:57.782Z,64.50
2023-02-02T23:03:24.704Z,64.50
2023-02-02T23:05:54.031Z,64.50
2023-02-02T23:08:23.331Z,64.40
2023-02-02T23:10:52.672Z,64.50
2023-02-02T23:13:21.591Z,64.50
2023-02-02T23:15:48.476Z,64.50
2023-02-02T23:18:20.217Z,64.50
2023-02-02T23:20:50.413Z,64.50
2023-02-02T23:23:17.233Z,64.60
2023-02-02T23:25:44.249Z,64.60
2023-02-02T23:28:16.625Z,64.60
2023-02-02T23:30:43.664Z,64.70
2023-02-02T23:33:13.009Z,64.60
2023-02-02T23:35:42.274Z,64.70
2023-02-02T23:38:11.588Z,64.70
2023-02-02T23:40:40.968Z,64.70
2023-02-02T23:43:07.900Z,64.70
2023-02-02T23:45:38.904Z,64.70
2023-02-02T23:48:09.275Z,64.80
2023-02-02T23:50:39.929Z,64.80
2023-02-02T23:53:11.238Z,64.80
2023-02-02T23:55:41.694Z,64.80
2023-02-02T23:58:12.712Z,64.90
